sensor_id;sensor_type;location;lat;lon;timestamp;P1;durP1;ratioP1;P2;durP2;ratioP2
20697;SDS011;10508;50.956;4.640;2023-02-03T00:00:24;8.80;;;2.15;;
20697;SDS011;10508;50.956;4.640;2023-02-03T00:02:52;4.97;;;1.80;;
20697;SDS011;10508;50.956;4.640;2023-02-03T00:05:18;7.35;;;2.10;;
20697;SDS011;10508;50.956;4.640;2023-02-03T00:07:44;9.07;;;2.30;;
20697;SDS011;10508;50.956;4.640;2023-02-03T00:10:10;4.10;;;2.25;;
20697;SDS011;10508;50.956;4.640;2023-02-03T00:12:36;9.93;;;2.40;;
20697;SDS011;10508;50.956;4.640;2023-02-03T00:15:02;9.30;;;2.67;;
20697;SDS011;10508;50.956;4.640;2023-02-03T00:17:28;9.13;;;2.85;;
20697;SDS011;10508;50.956;4.640;2023-02-03T00:19:54;8.70;;;2.53;;
20697;SDS011;10508;50.956;4.640;2023-02-03T00:22:19;4.35;;;1.80;;
20697;SDS011;10508;50.956;4.640;2023-02-03T00:24:45;8.07;;;2.97;;
20697;SDS011;10508;50.956;4.640;2023-02-03T00:27:11;6.20;;;2.05;;
20697;SDS011;10508;50.956;4.640;2023-02-03T00:29:36;4.40;;;2.05;;
20697;SDS011;10508;50.956;4.640;2023-02-03T00:32:02;9.35;;;2.25;;
20697;SDS011;10508;50.956;4.640;2023-02-03T00:34:28;4.32;;;2.22;;
20697;SDS011;10508;50.956;4.640;2023-02-03T00:36:54;9.35;;;2.38;;
20697;SDS011;10508;50.956;4.640;2023-02-03T00:39:20;6.70;;;2.00;;
20697;SDS011;10508;50.956;4.640;2023-02-03T00:41:46;6.43;;;1.73;;
20697;SDS011;10508;50.956;4.640;2023-02-03T00:44:12;7.00;;;1.80;;
20697;SDS011;10508;50.956;4.640;2023-02-03T00:46:38;11.75;;;2.05;;
20697;SDS011;10508;50.956;4.640;2023-02-03T00:49:04;5.65;;;1.60;;
20697;SDS011;10508;50.956;4.640;2023-02-03T00:51:30;5.60;;;2.00;;
20697;SDS011;10508;50.956;4.640;2023-02-03T00:54:12;7.07;;;2.47;;
20697;SDS011;10508;50.956;4.640;2023-02-03T00:56:38;7.78;;;2.45;;
20697;SDS011;10508;50.956;4.640;2023-02-03T00:59:04;7.78;;;1.95;;
20697;SDS011;10508;50.956;4.640;2023-02-03T01:01:31;9.05;;;1.75;;
20697;SDS011;10508;50.956;4.640;2023-02-03T01:03:57;8.55;;;1.60;;
20697;SDS011;10508;50.956;4.640;2023-02-03T01:06:24;9.73;;;1.92;;
20697;SDS011;10508;50.956;4.640;2023-02-03T01:08:50;3.85;;;1.70;;
20697;SDS011;10508;50.956;4.640;2023-02-03T01:11:20;6.35;;;1.88;;
20697;SDS011;10508;50.956;4.640;2023-02-03T01:13:51;7.50;;;1.35;;
20697;SDS011;10508;50.956;4.640;2023-02-03T01:16:19;5.75;;;1.60;;
20697;SDS011;10508;50.956;4.640;2023-02-03T01:18:46;13.10;;;2.05;;
20697;SDS011;10508;50.956;4.640;2023-02-03T01:21:13;6.30;;;1.85;;
20697;SDS011;10508;50.956;4.640;2023-02-03T01:23:48;7.25;;;1.73;;
20697;SDS011;10508;50.956;4.640;2023-02-03T01:26:15;5.00;;;1.10;;
20697;SDS011;10508;50.956;4.640;2023-02-03T01:28:42;5.85;;;1.60;;
20697;SDS011;10508;50.956;4.640;2023-02-03T01:31:12;9.65;;;2.05;;
20697;SDS011;10508;50.956;4.640;2023-02-03T01:33:40;15.48;;;2.55;;
20697;SDS011;10508;50.956;4.640;2023-02-03T01:36:07;9.52;;;1.30;;
20697;SDS011;10508;50.956;4.640;2023-02-03T01:38:33;9.98;;;1.73;;
20697;SDS011;10508;50.956;4.640;2023-02-03T01:41:00;11.65;;;2.05;;
20697;SDS011;10508;50.956;4.640;2023-02-03T01:43:32;11.07;;;1.58;;
20697;SDS011;10508;50.956;4.640;2023-02-03T01:49:03;5.85;;;1.58;;
20697;SDS011;10508;50.956;4.640;2023-02-03T01:51:34;7.18;;;1.17;;
20697;SDS011;10508;50.956;4.640;2023-02-03T01:54:03;7.20;;;1.40;;
20697;SDS011;10508;50.956;4.640;2023-02-03T01:56:31;7.55;;;1.40;;
20697;SDS011;10508;50.956;4.640;2023-02-03T01:59:01;6.18;;;1.27;;
20697;SDS011;10508;50.956;4.640;2023-02-03T02:01:27;9.43;;;1.17;;
20697;SDS011;10508;50.956;4.640;2023-02-03T02:03:56;10.80;;;1.27;;
20697;SDS011;10508;50.956;4.640;2023-02-03T02:06:24;7.78;;;1.63;;
20697;SDS011;10508;50.956;4.640;2023-02-03T02:08:51;7.35;;;1.75;;
20697;SDS011;10508;50.956;4.640;2023-02-03T02:11:18;7.93;;;1.38;;
20697;SDS011;10508;50.956;4.640;2023-02-03T02:13:45;9.88;;;2.05;;
20697;SDS011;10508;50.956;4.640;2023-02-03T02:21:34;7.10;;;1.45;;
20697;SDS011;10508;50.956;4.640;2023-02-03T02:33:22;9.32;;;1.65;;
20697;SDS011;10508;50.956;4.640;2023-02-03T02:41:35;7.95;;;1.20;;
20697;SDS011;10508;50.956;4.640;2023-02-03T02:46:45;11.45;;;1.20;;
20697;SDS011;10508;50.956;4.640;2023-02-03T02:51:49;13.85;;;1.80;;
20697;SDS011;10508;50.956;4.640;2023-02-03T02:54:18;6.00;;;1.17;;
20697;SDS011;10508;50.956;4.640;2023-02-03T02:56:48;6.18;;;1.10;;
20697;SDS011;10508;50.956;4.640;2023-02-03T02:59:19;5.88;;;1.38;;
20697;SDS011;10508;50.956;4.640;2023-02-03T03:01:45;12.65;;;1.42;;
20697;SDS011;10508;50.956;4.640;2023-02-03T03:04:11;9.93;;;1.52;;
20697;SDS011;10508;50.956;4.640;2023-02-03T03:09:56;9.00;;;0.90;;
20697;SDS011;10508;50.956;4.640;2023-02-03T03:12:29;15.82;;;1.33;;
20697;SDS011;10508;50.956;4.640;2023-02-03T03:14:59;7.90;;;1.02;;
20697;SDS011;10508;50.956;4.640;2023-02-03T03:17:29;11.05;;;0.70;;
20697;SDS011;10508;50.956;4.640;2023-02-03T03:19:59;7.22;;;1.30;;
20697;SDS011;10508;50.956;4.640;2023-02-03T03:22:31;10.70;;;1.70;;
20697;SDS011;10508;50.956;4.640;2023-02-03T03:25:11;7.60;;;1.20;;
20697;SDS011;10508;50.956;4.640;2023-02-03T03:27:42;12.65;;;1.20;;
20697;SDS011;10508;50.956;4.640;2023-02-03T03:30:15;8.35;;;2.00;;
20697;SDS011;10508;50.956;4.640;2023-02-03T03:32:47;5.60;;;1.30;;
20697;SDS011;10508;50.956;4.640;2023-02-03T03:35:13;4.07;;;1.15;;
20697;SDS011;10508;50.956;4.640;2023-02-03T03:37:43;6.70;;;1.30;;
20697;SDS011;10508;50.956;4.640;2023-02-03T03:40:37;8.80;;;1.30;;
20697;SDS011;10508;50.956;4.640;2023-02-03T03:45:46;9.85;;;1.58;;
20697;SDS011;10508;50.956;4.640;2023-02-03T03:48:28;3.15;;;0.73;;
20697;SDS011;10508;50.956;4.640;2023-02-03T03:51:07;6.97;;;0.85;;
20697;SDS011;10508;50.956;4.640;2023-02-03T03:53:54;5.85;;;1.00;;
20697;SDS011;10508;50.956;4.640;2023-02-03T03:56:26;1.85;;;0.80;;
20697;SDS011;10508;50.956;4.640;2023-02-03T03:58:56;7.80;;;1.30;;
20697;SDS011;10508;50.956;4.640;2023-02-03T04:01:23;3.65;;;1.00;;
20697;SDS011;10508;50.956;4.640;2023-02-03T04:03:54;6.97;;;1.00;;
20697;SDS011;10508;50.956;4.640;2023-02-03T04:06:22;9.57;;;1.13;;
20697;SDS011;10508;50.956;4.640;2023-02-03T04:08:48;4.57;;;0.75;;
20697;SDS011;10508;50.956;4.640;2023-02-03T04:11:14;11.98;;;1.38;;
20697;SDS011;10508;50.956;4.640;2023-02-03T04:14:00;6.88;;;0.93;;
20697;SDS011;10508;50.956;4.640;2023-02-03T04:16:25;8.02;;;1.63;;
20697;SDS011;10508;50.956;4.640;2023-02-03T04:18:51;5.97;;;1.05;;
20697;SDS011;10508;50.956;4.640;2023-02-03T04:21:16;3.92;;;1.17;;
20697;SDS011;10508;50.956;4.640;2023-02-03T04:23:42;2.45;;;0.80;;
20697;SDS011;10508;50.956;4.640;2023-02-03T04:26:08;5.15;;;0.90;;
20697;SDS011;10508;50.956;4.640;2023-02-03T04:28:33;4.40;;;0.90;;
20697;SDS011;10508;50.956;4.640;2023-02-03T04:30:59;4.30;;;1.40;;
20697;SDS011;10508;50.956;4.640;2023-02-03T04:33:25;3.45;;;0.63;;
20697;SDS011;10508;50.956;4.640;2023-02-03T04:35:51;9.00;;;0.77;;
20697;SDS011;10508;50.956;4.640;2023-02-03T04:38:16;2.42;;;0.85;;
20697;SDS011;10508;50.956;4.640;2023-02-03T04:40:42;11.55;;;1.48;;
20697;SDS011;10508;50.956;4.640;2023-02-03T04:43:10;4.25;;;0.95;;
20697;SDS011;10508;50.956;4.640;2023-02-03T04:45:36;5.68;;;1.05;;
20697;SDS011;10508;50.956;4.640;2023-02-03T04:48:02;14.60;;;1.00;;
20697;SDS011;10508;50.956;4.640;2023-02-03T04:50:29;10.68;;;1.23;;
20697;SDS011;10508;50.956;4.640;2023-02-03T04:52:55;7.22;;;0.90;;
20697;SDS011;10508;50.956;4.640;2023-02-03T04:55:24;4.97;;;0.68;;
20697;SDS011;10508;50.956;4.640;2023-02-03T04:57:56;2.92;;;0.88;;
20697;SDS011;10508;50.956;4.640;2023-02-03T05:00:23;2.00;;;0.82;;
20697;SDS011;10508;50.956;4.640;2023-02-03T05:02:49;10.23;;;0.88;;
20697;SDS011;10508;50.956;4.640;2023-02-03T05:05:15;9.80;;;1.98;;
20697;SDS011;10508;50.956;4.640;2023-02-03T05:07:41;5.00;;;0.95;;
20697;SDS011;10508;50.956;4.640;2023-02-03T05:10:07;4.70;;;0.55;;
20697;SDS011;10508;50.956;4.640;2023-02-03T05:12:33;5.60;;;1.00;;
20697;SDS011;10508;50.956;4.640;2023-02-03T05:14:59;6.85;;;1.13;;
20697;SDS011;10508;50.956;4.640;2023-02-03T05:17:24;5.95;;;1.20;;
20697;SDS011;10508;50.956;4.640;2023-02-03T05:19:50;7.45;;;0.77;;
20697;SDS011;10508;50.956;4.640;2023-02-03T05:22:16;6.07;;;0.80;;
20697;SDS011;10508;50.956;4.640;2023-02-03T05:24:41;5.45;;;0.63;;
20697;SDS011;10508;50.956;4.640;2023-02-03T05:27:07;1.63;;;0.77;;
20697;SDS011;10508;50.956;4.640;2023-02-03T05:29:33;3.53;;;0.63;;
20697;SDS011;10508;50.956;4.640;2023-02-03T05:31:58;8.10;;;1.08;;
20697;SDS011;10508;50.956;4.640;2023-02-03T05:34:24;7.82;;;0.90;;
20697;SDS011;10508;50.956;4.640;2023-02-03T05:36:49;2.63;;;0.60;;
20697;SDS011;10508;50.956;4.640;2023-02-03T05:39:15;3.92;;;0.63;;
20697;SDS011;10508;50.956;4.640;2023-02-03T05:41:41;4.50;;;1.10;;
20697;SDS011;10508;50.956;4.640;2023-02-03T05:44:23;3.83;;;0.50;;
20697;SDS011;10508;50.956;4.640;2023-02-03T05:46:51;6.13;;;0.77;;
20697;SDS011;10508;50.956;4.640;2023-02-03T05:49:18;4.38;;;0.50;;
20697;SDS011;10508;50.956;4.640;2023-02-03T05:51:44;4.38;;;0.70;;
20697;SDS011;10508;50.956;4.640;2023-02-03T05:54:13;17.70;;;1.67;;
20697;SDS011;10508;50.956;4.640;2023-02-03T05:56:38;5.53;;;0.95;;
20697;SDS011;10508;50.956;4.640;2023-02-03T05:59:04;8.13;;;0.90;;
20697;SDS011;10508;50.956;4.640;2023-02-03T06:01:30;1.85;;;0.90;;
20697;SDS011;10508;50.956;4.640;2023-02-03T06:03:57;5.97;;;0.82;;
20697;SDS011;10508;50.956;4.640;2023-02-03T06:06:23;0.77;;;0.50;;
20697;SDS011;10508;50.956;4.640;2023-02-03T06:08:49;4.95;;;0.80;;
20697;SDS011;10508;50.956;4.640;2023-02-03T06:11:20;4.47;;;0.70;;
20697;SDS011;10508;50.956;4.640;2023-02-03T06:13:48;5.78;;;0.85;;
20697;SDS011;10508;50.956;4.640;2023-02-03T06:16:14;5.82;;;0.70;;
20697;SDS011;10508;50.956;4.640;2023-02-03T06:18:39;2.50;;;0.73;;
20697;SDS011;10508;50.956;4.640;2023-02-03T06:21:05;3.15;;;0.65;;
20697;SDS011;10508;50.956;4.640;2023-02-03T06:23:31;6.28;;;1.15;;
20697;SDS011;10508;50.956;4.640;2023-02-03T06:25:56;1.70;;;0.73;;
20697;SDS011;10508;50.956;4.640;2023-02-03T06:28:24;13.15;;;1.08;;
20697;SDS011;10508;50.956;4.640;2023-02-03T06:30:50;6.47;;;0.82;;
20697;SDS011;10508;50.956;4.640;2023-02-03T06:33:17;6.93;;;0.80;;
20697;SDS011;10508;50.956;4.640;2023-02-03T06:35:46;6.70;;;1.23;;
20697;SDS011;10508;50.956;4.640;2023-02-03T06:38:11;6.10;;;0.95;;
20697;SDS011;10508;50.956;4.640;2023-02-03T06:40:37;5.25;;;0.80;;
20697;SDS011;10508;50.956;4.640;2023-02-03T06:43:03;10.82;;;0.88;;
20697;SDS011;10508;50.956;4.640;2023-02-03T06:45:29;0.98;;;0.60;;
20697;SDS011;10508;50.956;4.640;2023-02-03T06:47:54;4.90;;;1.25;;
20697;SDS011;10508;50.956;4.640;2023-02-03T06:50:20;15.00;;;0.90;;
20697;SDS011;10508;50.956;4.640;2023-02-03T06:52:47;8.90;;;1.17;;
20697;SDS011;10508;50.956;4.640;2023-02-03T06:55:14;2.80;;;0.82;;
20697;SDS011;10508;50.956;4.640;2023-02-03T06:57:45;2.83;;;0.90;;
20697;SDS011;10508;50.956;4.640;2023-02-03T07:00:12;3.60;;;0.70;;
20697;SDS011;10508;50.956;4.640;2023-02-03T07:02:40;5.22;;;0.90;;
20697;SDS011;10508;50.956;4.640;2023-02-03T07:05:05;5.93;;;0.65;;
20697;SDS011;10508;50.956;4.640;2023-02-03T07:07:31;8.23;;;1.20;;
20697;SDS011;10508;50.956;4.640;2023-02-03T07:09:58;6.28;;;0.65;;
20697;SDS011;10508;50.956;4.640;2023-02-03T07:12:24;32.95;;;1.25;;
20697;SDS011;10508;50.956;4.640;2023-02-03T07:14:50;4.35;;;0.70;;
20697;SDS011;10508;50.956;4.640;2023-02-03T07:17:18;1.63;;;0.50;;
20697;SDS011;10508;50.956;4.640;2023-02-03T07:19:43;3.55;;;0.85;;
20697;SDS011;10508;50.956;4.640;2023-02-03T07:22:09;12.02;;;1.00;;
20697;SDS011;10508;50.956;4.640;2023-02-03T07:24:40;5.75;;;0.82;;
20697;SDS011;10508;50.956;4.640;2023-02-03T07:27:06;9.57;;;2.22;;
20697;SDS011;10508;50.956;4.640;2023-02-03T07:29:31;8.68;;;0.90;;
20697;SDS011;10508;50.956;4.640;2023-02-03T07:31:57;5.72;;;0.90;;
20697;SDS011;10508;50.956;4.640;2023-02-03T07:34:23;8.82;;;1.38;;
20697;SDS011;10508;50.956;4.640;2023-02-03T07:36:48;3.10;;;0.65;;
20697;SDS011;10508;50.956;4.640;2023-02-03T07:39:14;7.38;;;1.00;;
20697;SDS011;10508;50.956;4.640;2023-02-03T07:41:40;3.20;;;0.52;;
20697;SDS011;10508;50.956;4.640;2023-02-03T07:44:05;4.90;;;0.75;;
20697;SDS011;10508;50.956;4.640;2023-02-03T07:46:33;6.25;;;1.05;;
20697;SDS011;10508;50.956;4.640;2023-02-03T07:49:05;13.15;;;1.33;;
20697;SDS011;10508;50.956;4.640;2023-02-03T07:51:31;11.85;;;0.90;;
20697;SDS011;10508;50.956;4.640;2023-02-03T07:53:56;15.13;;;0.93;;
20697;SDS011;10508;50.956;4.640;2023-02-03T07:56:22;3.15;;;1.00;;
20697;SDS011;10508;50.956;4.640;2023-02-03T07:58:50;8.90;;;0.90;;
20697;SDS011;10508;50.956;4.640;2023-02-03T08:01:16;2.40;;;0.70;;
20697;SDS011;10508;50.956;4.640;2023-02-03T08:03:42;5.28;;;1.10;;
20697;SDS011;10508;50.956;4.640;2023-02-03T08:06:08;4.80;;;0.80;;
20697;SDS011;10508;50.956;4.640;2023-02-03T08:08:34;3.63;;;0.70;;
20697;SDS011;10508;50.956;4.640;2023-02-03T08:11:00;6.43;;;0.80;;
20697;SDS011;10508;50.956;4.640;2023-02-03T08:13:26;6.35;;;0.98;;
20697;SDS011;10508;50.956;4.640;2023-02-03T08:15:52;2.28;;;0.95;;
20697;SDS011;10508;50.956;4.640;2023-02-03T08:18:18;8.18;;;1.58;;
20697;SDS011;10508;50.956;4.640;2023-02-03T08:20:43;3.63;;;0.80;;
20697;SDS011;10508;50.956;4.640;2023-02-03T08:23:11;3.40;;;0.70;;
20697;SDS011;10508;50.956;4.640;2023-02-03T08:25:36;3.95;;;1.05;;
20697;SDS011;10508;50.956;4.640;2023-02-03T08:28:02;6.43;;;1.42;;
20697;SDS011;10508;50.956;4.640;2023-02-03T08:30:28;3.72;;;0.95;;
20697;SDS011;10508;50.956;4.640;2023-02-03T08:32:53;2.35;;;0.60;;
20697;SDS011;10508;50.956;4.640;2023-02-03T08:35:19;2.83;;;1.00;;
20697;SDS011;10508;50.956;4.640;2023-02-03T08:37:45;6.30;;;1.23;;
20697;SDS011;10508;50.956;4.640;2023-02-03T08:40:11;10.70;;;1.10;;
20697;SDS011;10508;50.956;4.640;2023-02-03T08:42:37;5.70;;;0.90;;
20697;SDS011;10508;50.956;4.640;2023-02-03T08:45:03;4.97;;;1.15;;
20697;SDS011;10508;50.956;4.640;2023-02-03T08:47:29;5.38;;;1.00;;
20697;SDS011;10508;50.956;4.640;2023-02-03T08:49:54;3.63;;;0.95;;
20697;SDS011;10508;50.956;4.640;2023-02-03T08:52:20;2.92;;;0.88;;
20697;SDS011;10508;50.956;4.640;2023-02-03T08:54:46;8.77;;;1.05;;
20697;SDS011;10508;50.956;4.640;2023-02-03T08:57:12;11.90;;;1.50;;
20697;SDS011;10508;50.956;4.640;2023-02-03T08:59:38;6.25;;;0.90;;
20697;SDS011;10508;50.956;4.640;2023-02-03T09:02:06;2.60;;;0.60;;
20697;SDS011;10508;50.956;4.640;2023-02-03T09:04:35;4.03;;;0.90;;
20697;SDS011;10508;50.956;4.640;2023-02-03T09:07:01;5.25;;;1.02;;
20697;SDS011;10508;50.956;4.640;2023-02-03T09:09:28;2.38;;;0.88;;
20697;SDS011;10508;50.956;4.640;2023-02-03T09:11:54;5.88;;;1.00;;
20697;SDS011;10508;50.956;4.640;2023-02-03T09:14:26;3.55;;;0.90;;
20697;SDS011;10508;50.956;4.640;2023-02-03T09:16:56;5.30;;;0.70;;
20697;SDS011;10508;50.956;4.640;2023-02-03T09:19:21;5.35;;;1.05;;
20697;SDS011;10508;50.956;4.640;2023-02-03T09:21:47;9.02;;;1.20;;
20697;SDS011;10508;50.956;4.640;2023-02-03T09:24:16;4.65;;;0.90;;
20697;SDS011;10508;50.956;4.640;2023-02-03T09:26:42;3.80;;;0.60;;
20697;SDS011;10508;50.956;4.640;2023-02-03T09:29:08;3.45;;;0.80;;
20697;SDS011;10508;50.956;4.640;2023-02-03T09:31:34;5.63;;;1.20;;
20697;SDS011;10508;50.956;4.640;2023-02-03T09:33:59;3.63;;;0.90;;
20697;SDS011;10508;50.956;4.640;2023-02-03T09:36:25;11.70;;;1.48;;
20697;SDS011;10508;50.956;4.640;2023-02-03T09:38:51;6.93;;;1.33;;
20697;SDS011;10508;50.956;4.640;2023-02-03T09:44:12;5.00;;;1.20;;
20697;SDS011;10508;50.956;4.640;2023-02-03T09:46:49;9.82;;;1.45;;
20697;SDS011;10508;50.956;4.640;2023-02-03T09:52:04;4.65;;;0.90;;
20697;SDS011;10508;50.956;4.640;2023-02-03T09:54:57;3.38;;;1.00;;
20697;SDS011;10508;50.956;4.640;2023-02-03T09:57:29;3.40;;;1.08;;
20697;SDS011;10508;50.956;4.640;2023-02-03T10:00:00;3.20;;;1.65;;
20697;SDS011;10508;50.956;4.640;2023-02-03T10:05:24;6.78;;;1.20;;
20697;SDS011;10508;50.956;4.640;2023-02-03T10:07:56;5.70;;;1.40;;
20697;SDS011;10508;50.956;4.640;2023-02-03T10:10:46;5.45;;;2.08;;
20697;SDS011;10508;50.956;4.640;2023-02-03T10:13:39;6.28;;;1.23;;
20697;SDS011;10508;50.956;4.640;2023-02-03T10:18:59;2.88;;;1.10;;
20697;SDS011;10508;50.956;4.640;2023-02-03T10:21:35;7.05;;;1.45;;
20697;SDS011;10508;50.956;4.640;2023-02-03T10:24:18;6.65;;;1.40;;
20697;SDS011;10508;50.956;4.640;2023-02-03T10:27:05;4.95;;;1.55;;
20697;SDS011;10508;50.956;4.640;2023-02-03T10:29:44;5.38;;;1.98;;
20697;SDS011;10508;50.956;4.640;2023-02-03T10:32:22;6.30;;;2.22;;
20697;SDS011;10508;50.956;4.640;2023-02-03T10:34:50;7.22;;;1.58;;
20697;SDS011;10508;50.956;4.640;2023-02-03T10:37:26;19.25;;;1.77;;
20697;SDS011;10508;50.956;4.640;2023-02-03T10:39:52;4.53;;;1.83;;
20697;SDS011;10508;50.956;4.640;2023-02-03T10:42:19;6.05;;;1.63;;
20697;SDS011;10508;50.956;4.640;2023-02-03T10:44:51;5.35;;;1.55;;
20697;SDS011;10508;50.956;4.640;2023-02-03T10:50:14;2.78;;;1.60;;
20697;SDS011;10508;50.956;4.640;2023-02-03T10:52:45;5.18;;;2.00;;
20697;SDS011;10508;50.956;4.640;2023-02-03T10:57:46;5.00;;;1.85;;
20697;SDS011;10508;50.956;4.640;2023-02-03T11:02:41;8.55;;;1.95;;
20697;SDS011;10508;50.956;4.640;2023-02-03T11:05:17;8.00;;;2.33;;
20697;SDS011;10508;50.956;4.640;2023-02-03T11:07:45;11.82;;;2.35;;
20697;SDS011;10508;50.956;4.640;2023-02-03T11:20:56;7.07;;;1.83;;
20697;SDS011;10508;50.956;4.640;2023-02-03T11:23:22;13.00;;;2.78;;
20697;SDS011;10508;50.956;4.640;2023-02-03T11:25:48;8.10;;;1.85;;
20697;SDS011;10508;50.956;4.640;2023-02-03T11:28:14;4.90;;;1.77;;
20697;SDS011;10508;50.956;4.640;2023-02-03T11:30:41;5.25;;;2.38;;
20697;SDS011;10508;50.956;4.640;2023-02-03T11:33:14;3.60;;;2.00;;
20697;SDS011;10508;50.956;4.640;2023-02-03T11:35:52;7.40;;;1.90;;
20697;SDS011;10508;50.956;4.640;2023-02-03T11:38:27;9.77;;;2.03;;
20697;SDS011;10508;50.956;4.640;2023-02-03T11:40:58;16.45;;;2.50;;
20697;SDS011;10508;50.956;4.640;2023-02-03T11:43:25;9.80;;;2.40;;
20697;SDS011;10508;50.956;4.640;2023-02-03T11:45:53;3.95;;;1.85;;
20697;SDS011;10508;50.956;4.640;2023-02-03T11:48:29;8.15;;;2.30;;
20697;SDS011;10508;50.956;4.640;2023-02-03T11:51:02;9.13;;;2.33;;
20697;SDS011;10508;50.956;4.640;2023-02-03T11:54:10;20.25;;;2.88;;
20697;SDS011;10508;50.956;4.640;2023-02-03T12:02:01;6.90;;;2.42;;
20697;SDS011;10508;50.956;4.640;2023-02-03T12:12:51;8.30;;;2.33;;
20697;SDS011;10508;50.956;4.640;2023-02-03T12:20:39;4.65;;;2.20;;
20697;SDS011;10508;50.956;4.640;2023-02-03T12:26:02;8.27;;;2.35;;
20697;SDS011;10508;50.956;4.640;2023-02-03T12:28:37;6.32;;;2.17;;
20697;SDS011;10508;50.956;4.640;2023-02-03T12:31:13;10.55;;;2.25;;
20697;SDS011;10508;50.956;4.640;2023-02-03T12:33:47;7.03;;;2.20;;
20697;SDS011;10508;50.956;4.640;2023-02-03T12:36:20;4.28;;;1.73;;
20697;SDS011;10508;50.956;4.640;2023-02-03T12:41:36;6.20;;;2.38;;
20697;SDS011;10508;50.956;4.640;2023-02-03T12:44:07;5.60;;;2.10;;
20697;SDS011;10508;50.956;4.640;2023-02-03T12:46:56;10.30;;;2.00;;
20697;SDS011;10508;50.956;4.640;2023-02-03T12:49:40;9.15;;;2.38;;
20697;SDS011;10508;50.956;4.640;2023-02-03T12:52:16;10.82;;;2.28;;
20697;SDS011;10508;50.956;4.640;2023-02-03T12:57:35;8.63;;;1.98;;
20697;SDS011;10508;50.956;4.640;2023-02-03T13:02:55;5.50;;;1.98;;
20697;SDS011;10508;50.956;4.640;2023-02-03T13:05:49;3.35;;;1.75;;
20697;SDS011;10508;50.956;4.640;2023-02-03T13:08:31;3.72;;;1.75;;
20697;SDS011;10508;50.956;4.640;2023-02-03T13:14:13;6.90;;;1.48;;
20697;SDS011;10508;50.956;4.640;2023-02-03T13:17:06;4.28;;;1.42;;
20697;SDS011;10508;50.956;4.640;2023-02-03T13:19:46;14.50;;;1.50;;
20697;SDS011;10508;50.956;4.640;2023-02-03T13:22:14;5.45;;;1.30;;
20697;SDS011;10508;50.956;4.640;2023-02-03T13:24:45;8.05;;;1.90;;
20697;SDS011;10508;50.956;4.640;2023-02-03T13:40:55;4.03;;;1.48;;
20697;SDS011;10508;50.956;4.640;2023-02-03T13:43:35;2.85;;;0.93;;
20697;SDS011;10508;50.956;4.640;2023-02-03T13:46:04;4.05;;;1.55;;
20697;SDS011;10508;50.956;4.640;2023-02-03T13:48:34;4.13;;;1.40;;
20697;SDS011;10508;50.956;4.640;2023-02-03T13:51:03;5.30;;;1.58;;
20697;SDS011;10508;50.956;4.640;2023-02-03T13:53:38;7.68;;;1.48;;
20697;SDS011;10508;50.956;4.640;2023-02-03T13:56:06;5.63;;;1.20;;
20697;SDS011;10508;50.956;4.640;2023-02-03T13:58:34;6.32;;;1.52;;
20697;SDS011;10508;50.956;4.640;2023-02-03T14:03:51;7.90;;;1.40;;
20697;SDS011;10508;50.956;4.640;2023-02-03T14:07:00;4.93;;;1.45;;
20697;SDS011;10508;50.956;4.640;2023-02-03T14:19:58;3.60;;;1.27;;
20697;SDS011;10508;50.956;4.640;2023-02-03T14:22:24;5.72;;;1.42;;
20697;SDS011;10508;50.956;4.640;2023-02-03T14:24:51;6.30;;;1.65;;
20697;SDS011;10508;50.956;4.640;2023-02-03T14:27:24;4.47;;;1.38;;
20697;SDS011;10508;50.956;4.640;2023-02-03T14:32:44;3.90;;;1.67;;
20697;SDS011;10508;50.956;4.640;2023-02-03T14:35:28;2.58;;;1.45;;
20697;SDS011;10508;50.956;4.640;2023-02-03T14:38:07;8.45;;;1.63;;
20697;SDS011;10508;50.956;4.640;2023-02-03T14:40:45;5.25;;;2.00;;
20697;SDS011;10508;50.956;4.640;2023-02-03T14:53:47;6.05;;;1.25;;
20697;SDS011;10508;50.956;4.640;2023-02-03T14:56:21;4.10;;;2.03;;
20697;SDS011;10508;50.956;4.640;2023-02-03T14:59:34;7.63;;;1.70;;
20697;SDS011;10508;50.956;4.640;2023-02-03T15:02:09;8.23;;;1.98;;
20697;SDS011;10508;50.956;4.640;2023-02-03T15:04:41;6.20;;;1.73;;
20697;SDS011;10508;50.956;4.640;2023-02-03T15:07:10;4.25;;;1.77;;
20697;SDS011;10508;50.956;4.640;2023-02-03T15:10:51;4.85;;;1.67;;
20697;SDS011;10508;50.956;4.640;2023-02-03T15:13:03;6.43;;;1.67;;
20697;SDS011;10508;50.956;4.640;2023-02-03T15:15:29;4.97;;;1.88;;
20697;SDS011;10508;50.956;4.640;2023-02-03T15:18:17;2.75;;;1.52;;
20697;SDS011;10508;50.956;4.640;2023-02-03T15:20:45;3.63;;;1.23;;
20697;SDS011;10508;50.956;4.640;2023-02-03T15:23:20;5.40;;;1.52;;
20697;SDS011;10508;50.956;4.640;2023-02-03T15:25:57;3.75;;;1.45;;
20697;SDS011;10508;50.956;4.640;2023-02-03T15:28:26;7.97;;;0.98;;
20697;SDS011;10508;50.956;4.640;2023-02-03T15:31:01;4.72;;;1.20;;
20697;SDS011;10508;50.956;4.640;2023-02-03T15:33:58;5.63;;;1.27;;
20697;SDS011;10508;50.956;4.640;2023-02-03T15:36:34;8.90;;;1.70;;
20697;SDS011;10508;50.956;4.640;2023-02-03T15:39:15;7.15;;;1.35;;
20697;SDS011;10508;50.956;4.640;2023-02-03T15:41:47;4.05;;;1.48;;
20697;SDS011;10508;50.956;4.640;2023-02-03T15:44:22;4.18;;;1.30;;
20697;SDS011;10508;50.956;4.640;2023-02-03T15:46:55;6.88;;;1.83;;
20697;SDS011;10508;50.956;4.640;2023-02-03T15:49:24;8.45;;;1.70;;
20697;SDS011;10508;50.956;4.640;2023-02-03T15:52:16;5.13;;;1.27;;
20697;SDS011;10508;50.956;4.640;2023-02-03T15:54:46;4.70;;;1.67;;
20697;SDS011;10508;50.956;4.640;2023-02-03T15:57:27;9.30;;;1.55;;
20697;SDS011;10508;50.956;4.640;2023-02-03T15:59:59;3.67;;;1.50;;
20697;SDS011;10508;50.956;4.640;2023-02-03T16:02:29;2.45;;;1.05;;
20697;SDS011;10508;50.956;4.640;2023-02-03T16:05:02;4.80;;;1.75;;
20697;SDS011;10508;50.956;4.640;2023-02-03T16:07:48;2.33;;;1.13;;
20697;SDS011;10508;50.956;4.640;2023-02-03T16:10:28;3.47;;;1.00;;
20697;SDS011;10508;50.956;4.640;2023-02-03T16:15:58;4.22;;;1.55;;
20697;SDS011;10508;50.956;4.640;2023-02-03T16:18:27;4.32;;;1.52;;
20697;SDS011;10508;50.956;4.640;2023-02-03T16:20:53;7.40;;;1.75;;
20697;SDS011;10508;50.956;4.640;2023-02-03T16:23:20;6.47;;;1.63;;
20697;SDS011;10508;50.956;4.640;2023-02-03T16:26:03;8.45;;;1.63;;
20697;SDS011;10508;50.956;4.640;2023-02-03T16:28:30;8.77;;;1.27;;
20697;SDS011;10508;50.956;4.640;2023-02-03T16:31:16;10.88;;;1.50;;
20697;SDS011;10508;50.956;4.640;2023-02-03T16:34:04;5.63;;;1.38;;
20697;SDS011;10508;50.956;4.640;2023-02-03T16:36:55;3.92;;;1.63;;
20697;SDS011;10508;50.956;4.640;2023-02-03T16:39:39;8.88;;;1.75;;
20697;SDS011;10508;50.956;4.640;2023-02-03T16:42:24;4.75;;;1.63;;
20697;SDS011;10508;50.956;4.640;2023-02-03T16:45:13;11.05;;;2.00;;
20697;SDS011;10508;50.956;4.640;2023-02-03T16:48:00;5.03;;;1.73;;
20697;SDS011;10508;50.956;4.640;2023-02-03T16:50:45;9.48;;;2.15;;
20697;SDS011;10508;50.956;4.640;2023-02-03T16:53:30;7.45;;;2.10;;
20697;SDS011;10508;50.956;4.640;2023-02-03T16:55:58;8.18;;;2.15;;
20697;SDS011;10508;50.956;4.640;2023-02-03T16:58:25;7.05;;;1.92;;
20697;SDS011;10508;50.956;4.640;2023-02-03T17:00:51;10.95;;;1.67;;
20697;SDS011;10508;50.956;4.640;2023-02-03T17:03:19;6.72;;;1.95;;
20697;SDS011;10508;50.956;4.640;2023-02-03T17:05:47;7.93;;;2.38;;
20697;SDS011;10508;50.956;4.640;2023-02-03T17:08:14;4.88;;;2.50;;
20697;SDS011;10508;50.956;4.640;2023-02-03T17:10:41;3.30;;;1.88;;
20697;SDS011;10508;50.956;4.640;2023-02-03T17:13:08;2.80;;;1.80;;
20697;SDS011;10508;50.956;4.640;2023-02-03T17:15:44;8.60;;;1.77;;
20697;SDS011;10508;50.956;4.640;2023-02-03T17:18:11;4.45;;;2.20;;
20697;SDS011;10508;50.956;4.640;2023-02-03T17:20:39;3.58;;;2.10;;
20697;SDS011;10508;50.956;4.640;2023-02-03T17:23:06;5.35;;;2.20;;
20697;SDS011;10508;50.956;4.640;2023-02-03T17:25:32;6.15;;;2.30;;